createdAt,value
2023-02-12T00:02:09.096Z,103888.41
2023-02-12T00:06:59.729Z,103888.53
2023-02-12T00:11:56.832Z,103882.06
2023-02-12T00:16:48.006Z,103884.69
2023-02-12T00:21:38.891Z,103887.31
2023-02-12T00:26:30.348Z,103888.84
2023-02-12T00:31:26.750Z,103886.03
2023-02-12T00:36:21.727Z,103885.19
2023-02-12T00:41:13.867Z,103884.19
2023-02-12T00:46:05.485Z,103884.00
2023-02-12T00:50:58.900Z,103883.38
2023-02-12T00:55:51.758Z,103886.31
2023-02-12T01:00:44.567Z,103889.72
2023-02-12T01:05:38.256Z,103883.09
2023-02-12T01:10:35.117Z,103883.72
2023-02-12T01:15:25.329Z,103886.19
2023-02-12T01:20:19.300Z,103881.88
2023-02-12T01:25:10.369Z,103881.34
2023-02-12T01:30:04.489Z,103879.91
2023-02-12T01:34:58.264Z,103881.69
2023-02-12T01:39:48.981Z,103882.56
2023-02-12T01:44:40.279Z,103877.09
2023-02-12T01:49:35.583Z,103881.53
2023-02-12T01:54:27.966Z,103886.59
2023-02-12T01:59:20.321Z,103883.84
2023-02-12T02:04:14.251Z,103884.53
2023-02-12T02:09:11.437Z,103891.22
2023-02-12T02:14:14.010Z,103883.50
2023-02-12T02:19:06.874Z,103884.41
2023-02-12T02:24:13.898Z,103885.50
2023-02-12T02:29:20.755Z,103883.72
2023-02-12T02:34:19.309Z,103892.25
2023-02-12T02:39:12.947Z,103887.88
2023-02-12T02:44:04.208Z,103878.19
2023-02-12T02:48:56.017Z,103880.63
2023-02-12T02:53:52.370Z,103867.66
2023-02-12T02:58:45.277Z,103875.38
2023-02-12T03:03:38.628Z,103871.91
2023-02-12T03:08:34.616Z,103870.81
2023-02-12T03:13:44.979Z,103869.75
2023-02-12T03:18:39.990Z,103866.28
2023-02-12T03:23:32.586Z,103859.38
2023-02-12T03:28:27.552Z,103868.75
2023-02-12T03:33:25.898Z,103867.88
2023-02-12T03:38:24.076Z,103868.88
2023-02-12T03:43:25.620Z,103865.56
2023-02-12T03:48:26.005Z,103867.88
2023-02-12T03:53:19.458Z,103863.56
2023-02-12T03:58:12.211Z,103868.00
2023-02-12T04:03:02.245Z,103871.69
2023-02-12T04:07:52.718Z,103874.06
2023-02-12T04:12:50.648Z,103881.16
2023-02-12T04:17:50.836Z,103885.88
2023-02-12T04:22:49.599Z,103898.91
2023-02-12T04:27:44.407Z,103897.94
2023-02-12T04:32:41.939Z,103898.72
2023-02-12T04:37:37.247Z,103903.41
2023-02-12T04:42:27.682Z,103900.56
2023-02-12T04:47:18.790Z,103903.13
2023-02-12T04:52:11.593Z,103907.41
2023-02-12T04:57:01.893Z,103907.75
2023-02-12T05:01:54.433Z,103903.16
2023-02-12T05:06:45.485Z,103907.63
2023-02-12T05:11:42.732Z,103896.72
2023-02-12T05:16:35.389Z,103907.75
2023-02-12T05:21:29.891Z,103898.25
2023-02-12T05:26:23.595Z,103901.81
2023-02-12T05:31:21.529Z,103900.13
2023-02-12T05:36:13.271Z,103902.56
2023-02-12T05:41:06.225Z,103907.00
2023-02-12T05:45:56.095Z,103904.41
2023-02-12T05:50:48.492Z,103905.22
2023-02-12T05:55:42.336Z,103905.91
2023-02-12T06:00:32.935Z,103916.13
2023-02-12T06:05:23.952Z,103913.09
2023-02-12T06:10:18.676Z,103919.00
2023-02-12T06:15:09.700Z,103913.81
2023-02-12T06:20:00.340Z,103912.13
2023-02-12T06:24:51.439Z,103917.38
2023-02-12T06:29:44.668Z,103912.28
2023-02-12T06:34:37.359Z,103914.78
2023-02-12T06:39:31.251Z,103921.47
2023-02-12T06:44:24.423Z,103909.69
2023-02-12T06:49:17.926Z,103913.31
2023-02-12T06:54:07.880Z,103919.81
2023-02-12T06:58:59.223Z,103926.66
2023-02-12T07:03:51.842Z,103929.09
2023-02-12T07:08:48.861Z,103933.38
2023-02-12T07:13:42.679Z,103939.09
2023-02-12T07:18:35.161Z,103938.28
2023-02-12T07:23:27.025Z,103945.16
2023-02-12T07:28:21.912Z,103949.44
2023-02-12T07:33:13.346Z,103960.50
2023-02-12T07:38:03.846Z,103957.19
2023-02-12T07:42:58.648Z,103964.84
2023-02-12T07:47:52.088Z,103971.69
2023-02-12T07:52:44.326Z,103980.69
2023-02-12T07:57:35.396Z,103963.69
2023-02-12T08:02:28.321Z,103968.34
2023-02-12T08:07:22.305Z,103967.59
2023-02-12T08:12:15.634Z,103966.78
2023-02-12T08:17:09.545Z,103978.28
2023-02-12T08:22:03.525Z,103974.09
2023-02-12T08:27:00.995Z,103963.69
2023-02-12T08:31:54.650Z,103976.50
2023-02-12T08:36:46.414Z,103981.13
2023-02-12T08:41:38.271Z,103989.53
2023-02-12T08:46:35.624Z,103992.34
2023-02-12T08:51:28.163Z,103995.84
2023-02-12T08:56:20.386Z,103999.91
2023-02-12T09:01:14.709Z,104005.09
2023-02-12T09:06:09.687Z,104010.00
2023-02-12T09:11:01.464Z,104011.13
2023-02-12T09:15:57.868Z,104008.66
2023-02-12T09:20:50.399Z,104006.41
2023-02-12T09:25:46.192Z,104023.97
2023-02-12T09:30:37.175Z,104023.97
2023-02-12T09:35:28.750Z,104020.59
2023-02-12T09:40:20.813Z,104018.41
2023-02-12T09:45:20.266Z,104020.19
2023-02-12T09:50:18.399Z,104023.75
2023-02-12T09:55:09.891Z,104020.63
2023-02-12T10:00:01.473Z,104019.63
2023-02-12T10:05:00.978Z,104019.91
2023-02-12T10:10:06.923Z,104023.19
2023-02-12T10:15:13.373Z,104014.34
2023-02-12T10:20:18.754Z,104018.72
2023-02-12T10:25:22.641Z,104025.63
2023-02-12T10:30:21.142Z,104026.84
2023-02-12T10:35:18.825Z,104022.63
2023-02-12T10:40:17.023Z,104024.69
2023-02-12T10:45:16.041Z,104025.28
2023-02-12T10:50:31.463Z,104029.19
2023-02-12T10:55:31.200Z,104025.09
2023-02-12T11:00:33.514Z,104014.78
2023-02-12T11:05:29.937Z,104021.91
2023-02-12T11:10:24.154Z,104016.03
2023-02-12T11:15:17.702Z,104019.72
2023-02-12T11:20:26.085Z,104017.44
2023-02-12T11:25:20.277Z,104017.44
2023-02-12T11:30:20.499Z,104014.63
2023-02-12T11:35:28.706Z,104014.31
2023-02-12T11:40:22.850Z,104023.09
2023-02-12T11:45:19.609Z,104011.72
2023-02-12T11:50:12.668Z,104001.22
2023-02-12T11:55:08.631Z,104005.78
2023-02-12T11:59:59.212Z,103999.06
2023-02-12T12:04:51.271Z,103997.16
2023-02-12T12:09:44.331Z,103997.84
2023-02-12T12:15:01.404Z,103992.59
2023-02-12T12:19:55.933Z,103992.44
2023-02-12T12:24:48.222Z,103980.75
2023-02-12T12:29:57.151Z,103985.94
2023-02-12T12:34:46.757Z,103976.63
2023-02-12T12:39:38.714Z,103981.56
2023-02-12T12:44:34.773Z,103974.84
2023-02-12T12:49:34.280Z,103980.75
2023-02-12T12:54:32.468Z,103971.28
2023-02-12T12:59:38.361Z,103961.84
2023-02-12T13:04:42.767Z,103954.06
2023-02-12T13:09:43.856Z,103943.06
2023-02-12T13:14:41.213Z,103938.75
2023-02-12T13:19:35.892Z,103939.03
2023-02-12T13:24:30.772Z,103932.41
2023-02-12T13:29:24.386Z,103938.50
2023-02-12T13:34:21.390Z,103930.38
2023-02-12T13:39:19.035Z,103930.19
2023-02-12T13:44:17.970Z,103928.09
2023-02-12T13:49:29.068Z,103925.56
2023-02-12T13:54:38.306Z,103917.00
2023-02-12T13:59:43.437Z,103920.56
2023-02-12T14:04:38.006Z,103905.84
2023-02-12T14:09:35.891Z,103899.44
2023-02-12T14:14:33.203Z,103892.59
2023-02-12T14:19:41.082Z,103889.16
2023-02-12T14:24:56.934Z,103883.09
2023-02-12T14:30:03.691Z,103882.19
2023-02-12T14:34:55.492Z,103887.41
2023-02-12T14:39:46.375Z,103881.25
2023-02-12T14:44:51.571Z,103876.06
2023-02-12T14:49:53.612Z,103879.53
2023-02-12T14:54:46.386Z,103870.34
2023-02-12T14:59:43.258Z,103872.06
2023-02-12T15:04:45.112Z,103870.91
2023-02-12T15:09:47.954Z,103864.59
2023-02-12T15:15:06.499Z,103863.75
2023-02-12T15:20:02.258Z,103872.06
2023-02-12T15:25:23.190Z,103863.91
2023-02-12T15:30:38.064Z,103851.66
2023-02-12T15:35:34.009Z,103857.03
2023-02-12T15:40:26.659Z,103862.94
2023-02-12T15:45:38.444Z,103859.44
2023-02-12T15:50:32.992Z,103858.63
2023-02-12T15:55:34.901Z,103862.88
2023-02-12T16:00:37.773Z,103858.38
2023-02-12T16:05:37.861Z,103853.44
2023-02-12T16:10:36.183Z,103856.72
2023-02-12T16:15:45.959Z,103856.72
2023-02-12T16:20:48.029Z,103856.63
2023-02-12T16:25:40.702Z,103851.13
2023-02-12T16:30:32.962Z,103859.59
2023-02-12T16:35:28.079Z,103857.56
2023-02-12T16:40:36.917Z,103858.47
2023-02-12T16:45:46.060Z,103856.19
2023-02-12T16:50:52.145Z,103857.00
2023-02-12T16:55:45.440Z,103858.34
2023-02-12T17:00:35.767Z,103862.00
2023-02-12T17:05:29.378Z,103861.63
2023-02-12T17:10:22.440Z,103863.53
2023-02-12T17:15:16.878Z,103866.13
2023-02-12T17:20:12.255Z,103864.28
2023-02-12T17:25:07.672Z,103862.38
2023-02-12T17:29:58.512Z,103863.13
2023-02-12T17:34:51.441Z,103864.63
2023-02-12T17:39:42.988Z,103862.03
2023-02-12T17:44:37.781Z,103864.69
2023-02-12T17:49:32.876Z,103869.88
2023-02-12T17:54:23.518Z,103873.09
2023-02-12T17:59:15.241Z,103882.75
2023-02-12T18:04:08.379Z,103881.88
2023-02-12T18:09:02.059Z,103886.03
2023-02-12T18:13:56.607Z,103885.81
2023-02-12T18:18:46.382Z,103892.72
2023-02-12T18:23:39.995Z,103893.34
2023-02-12T18:28:33.832Z,103875.88
2023-02-12T18:33:25.106Z,103879.75
2023-02-12T18:38:17.293Z,103879.41
2023-02-12T18:43:11.547Z,103874.16
2023-02-12T18:48:01.556Z,103871.28
2023-02-12T18:52:55.563Z,103861.81
2023-02-12T18:57:50.634Z,103860.84
2023-02-12T19:02:47.237Z,103862.28
2023-02-12T19:07:38.657Z,103869.31
2023-02-12T19:12:31.316Z,103862.34
2023-02-12T19:17:22.545Z,103866.72
2023-02-12T19:22:16.118Z,103866.78
2023-02-12T19:27:09.856Z,103874.09
2023-02-12T19:32:02.364Z,103858.44
2023-02-12T19:36:53.079Z,103862.47
2023-02-12T19:41:48.420Z,103852.97
2023-02-12T19:46:40.164Z,103857.63
2023-02-12T19:51:32.446Z,103852.97
2023-02-12T19:56:23.283Z,103852.16
2023-02-12T20:01:22.789Z,103848.84
2023-02-12T20:06:15.121Z,103845.53
2023-02-12T20:11:11.712Z,103855.84
2023-02-12T20:16:05.167Z,103846.44
2023-02-12T20:21:00.228Z,103844.03
2023-02-12T20:25:55.280Z,103845.34
2023-02-12T20:30:49.441Z,103850.31
2023-02-12T20:35:40.751Z,103847.41
2023-02-12T20:40:34.386Z,103840.91
2023-02-12T20:45:25.783Z,103846.19
2023-02-12T20:50:16.223Z,103842.59
2023-02-12T20:55:07.332Z,103856.34
2023-02-12T21:00:01.372Z,103844.88
2023-02-12T21:04:54.198Z,103849.84
2023-02-12T21:09:44.788Z,103844.81
2023-02-12T21:14:35.911Z,103854.13
2023-02-12T21:19:30.424Z,103850.78
2023-02-12T21:24:22.019Z,103844.66
2023-02-12T21:29:12.639Z,103849.16
2023-02-12T21:34:05.190Z,103854.34
2023-02-12T21:39:02.917Z,103849.22
2023-02-12T21:43:58.012Z,103847.13
2023-02-12T21:48:49.130Z,103848.00
2023-02-12T21:53:39.576Z,103848.91
2023-02-12T21:58:33.546Z,103852.97
2023-02-12T22:03:26.229Z,103851.00
2023-02-12T22:08:18.986Z,103842.28
2023-02-12T22:13:10.632Z,103831.94
2023-02-12T22:18:03.952Z,103830.50
2023-02-12T22:22:54.579Z,103826.16
2023-02-12T22:27:47.913Z,103827.19
2023-02-12T22:32:38.672Z,103820.03
2023-02-12T22:37:35.032Z,103825.31
2023-02-12T22:42:26.810Z,103833.94
2023-02-12T22:47:17.788Z,103834.75
2023-02-12T22:52:08.431Z,103832.72
2023-02-12T22:57:02.944Z,103832.56
2023-02-12T23:01:53.500Z,103828.06
2023-02-12T23:06:44.224Z,103828.75
2023-02-12T23:11:35.678Z,103820.91
2023-02-12T23:16:29.248Z,103819.81
2023-02-12T23:21:20.571Z,103816.31
2023-02-12T23:26:15.016Z,103822.25
2023-02-12T23:31:07.280Z,103820.75
2023-02-12T23:36:00.908Z,103815.34
2023-02-12T23:40:51.852Z,103811.13
2023-02-12T23:45:42.097Z,103813.50
2023-02-12T23:50:32.793Z,103801.50
2023-02-12T23:55:26.066Z,103798.84
